Pagina principale
METAR-TAF:

METAR-TAF

Aeroporti :

Aeroporto di Parma

Parma, Italia

latitudine: 44-49-17N, longitudine: 010-17-41E, altezza: 50 m

Osservazione

Il bollettino è stato emesso 5 ore e 24 minuti fa, alle 20:50 UTC
Vento 2 kt da direzioni variabili
Temperature 18°C
Umidità 94%
Pressione 1016 hPa
Visibilità 10 km o più
Poco nuvoloso ad un'altezza di 3000 ft

METAR: LIMP 272050Z VRB02KT 9999 FEW030 18/17 Q1016

Ora: 04:14 (02:14 UTC)

Previsione

Il bollettino è stato emesso 9 ore e 14 minuti fa, alle 17:00 UTC
Previsione valida dal 27 alle 18 UTC al 28 alle 18 UTC
Vento 5 kt da direzioni variabili
Visibilità 10 km o più
Nubi sparse ad un'altezza di 4000 ft
Temporaneamente
dal 27 alle 21 UTC al 28 alle 06 UTC
rovesci di pioggia,

TAF: LIMP 271700Z 2718/2818 VRB05KT 9999 SCT040 TEMPO 2721/2806 SHRA

Osservazioni e previsioni meteorologiche di più di 4000 aeroporti (messaggi METAR e TAF).

Le stazioni disponibili sono rappresentate dai dischi gialli e rossi sulla carta.

Puntare il mouse per vedere il nome della stazione.

Clicca sopra per visualizzare le osservazioni e previsioni meteorologiche.

Per cambiare la mappa : fare clic sui pulsanti verdi con una croce nera per ingrandire, il pulsante verde con un trattino per diminuire, o sulla freccia verde per le mappe adiacenti.


METAR-TAF: